sensor_id;sensor_type;location;lat;lon;timestamp;temperature;humidity
79026;DHT22;71097;44.760;37.726;2023-08-06T00:01:02;30.18;44.39
79026;DHT22;71097;44.760;37.726;2023-08-06T00:02:04;30.17;44.40
79026;DHT22;71097;44.760;37.726;2023-08-06T00:03:07;30.17;44.38
79026;DHT22;71097;44.760;37.726;2023-08-06T00:04:09;30.17;44.49
79026;DHT22;71097;44.760;37.726;2023-08-06T00:05:10;30.16;44.45
79026;DHT22;71097;44.760;37.726;2023-08-06T00:06:12;30.19;44.34
79026;DHT22;71097;44.760;37.726;2023-08-06T00:07:13;30.19;44.38
79026;DHT22;71097;44.760;37.726;2023-08-06T00:08:15;30.18;44.34
79026;DHT22;71097;44.760;37.726;2023-08-06T00:09:16;30.18;44.41
79026;DHT22;71097;44.760;37.726;2023-08-06T00:10:18;30.18;44.45
79026;DHT22;71097;44.760;37.726;2023-08-06T00:11:19;30.20;44.46
79026;DHT22;71097;44.760;37.726;2023-08-06T00:12:21;30.21;44.45
79026;DHT22;71097;44.760;37.726;2023-08-06T00:13:22;30.21;44.39
79026;DHT22;71097;44.760;37.726;2023-08-06T00:14:23;30.25;44.32
79026;DHT22;71097;44.760;37.726;2023-08-06T00:15:25;30.22;44.35
79026;DHT22;71097;44.760;37.726;2023-08-06T00:16:26;30.22;44.47
79026;DHT22;71097;44.760;37.726;2023-08-06T00:17:28;30.20;44.58
79026;DHT22;71097;44.760;37.726;2023-08-06T00:18:29;30.19;44.39
79026;DHT22;71097;44.760;37.726;2023-08-06T00:19:32;30.20;44.54
79026;DHT22;71097;44.760;37.726;2023-08-06T00:20:33;30.20;44.51
79026;DHT22;71097;44.760;37.726;2023-08-06T00:21:35;30.21;44.35
79026;DHT22;71097;44.760;37.726;2023-08-06T00:22:37;30.19;44.43
79026;DHT22;71097;44.760;37.726;2023-08-06T00:23:39;30.17;44.77
79026;DHT22;71097;44.760;37.726;2023-08-06T00:24:41;30.12;45.11
79026;DHT22;71097;44.760;37.726;2023-08-06T00:25:42;30.07;44.64
79026;DHT22;71097;44.760;37.726;2023-08-06T00:26:44;30.08;45.32
79026;DHT22;71097;44.760;37.726;2023-08-06T00:27:45;30.04;44.58
79026;DHT22;71097;44.760;37.726;2023-08-06T00:28:46;30.06;44.95
79026;DHT22;71097;44.760;37.726;2023-08-06T00:29:48;30.07;44.99
79026;DHT22;71097;44.760;37.726;2023-08-06T00:30:56;30.07;45.03
79026;DHT22;71097;44.760;37.726;2023-08-06T00:32:03;30.07;45.07
79026;DHT22;71097;44.760;37.726;2023-08-06T00:33:05;30.05;45.24
79026;DHT22;71097;44.760;37.726;2023-08-06T00:34:07;30.03;45.10
79026;DHT22;71097;44.760;37.726;2023-08-06T00:35:08;30.00;45.28
79026;DHT22;71097;44.760;37.726;2023-08-06T00:36:10;29.98;45.03
79026;DHT22;71097;44.760;37.726;2023-08-06T00:37:11;29.96;45.43
79026;DHT22;71097;44.760;37.726;2023-08-06T00:38:14;29.92;45.45
79026;DHT22;71097;44.760;37.726;2023-08-06T00:39:35;29.89;45.68
79026;DHT22;71097;44.760;37.726;2023-08-06T00:40:37;29.89;45.70
79026;DHT22;71097;44.760;37.726;2023-08-06T00:41:38;29.90;45.80
79026;DHT22;71097;44.760;37.726;2023-08-06T00:42:58;29.90;45.45
79026;DHT22;71097;44.760;37.726;2023-08-06T00:44:00;29.90;45.62
79026;DHT22;71097;44.760;37.726;2023-08-06T00:45:01;29.87;45.64
79026;DHT22;71097;44.760;37.726;2023-08-06T00:46:08;29.83;45.57
79026;DHT22;71097;44.760;37.726;2023-08-06T00:47:10;29.85;45.21
79026;DHT22;71097;44.760;37.726;2023-08-06T00:48:11;29.88;46.19
79026;DHT22;71097;44.760;37.726;2023-08-06T00:49:13;29.86;46.27
79026;DHT22;71097;44.760;37.726;2023-08-06T00:50:14;29.85;45.83
79026;DHT22;71097;44.760;37.726;2023-08-06T00:51:17;29.81;45.67
79026;DHT22;71097;44.760;37.726;2023-08-06T00:52:19;29.76;45.72
79026;DHT22;71097;44.760;37.726;2023-08-06T00:53:20;29.75;46.17
79026;DHT22;71097;44.760;37.726;2023-08-06T00:54:23;29.70;46.41
79026;DHT22;71097;44.760;37.726;2023-08-06T00:55:25;29.66;46.78
79026;DHT22;71097;44.760;37.726;2023-08-06T00:56:27;29.65;47.29
79026;DHT22;71097;44.760;37.726;2023-08-06T00:57:50;29.59;47.47
79026;DHT22;71097;44.760;37.726;2023-08-06T00:58:52;29.53;47.57
79026;DHT22;71097;44.760;37.726;2023-08-06T00:59:54;29.50;47.32
79026;DHT22;71097;44.760;37.726;2023-08-06T01:00:56;29.48;46.78
79026;DHT22;71097;44.760;37.726;2023-08-06T01:01:58;29.49;47.54
79026;DHT22;71097;44.760;37.726;2023-08-06T01:03:01;29.43;47.60
79026;DHT22;71097;44.760;37.726;2023-08-06T01:04:03;29.31;47.78
79026;DHT22;71097;44.760;37.726;2023-08-06T01:05:05;29.26;47.88
79026;DHT22;71097;44.760;37.726;2023-08-06T01:06:07;29.18;47.94
79026;DHT22;71097;44.760;37.726;2023-08-06T01:14:29;29.08;48.59
79026;DHT22;71097;44.760;37.726;2023-08-06T01:15:45;29.08;48.87
79026;DHT22;71097;44.760;37.726;2023-08-06T01:16:50;29.08;48.96
79026;DHT22;71097;44.760;37.726;2023-08-06T01:17:52;29.08;48.30
79026;DHT22;71097;44.760;37.726;2023-08-06T01:18:53;29.06;48.21
79026;DHT22;71097;44.760;37.726;2023-08-06T01:19:55;29.06;48.34
79026;DHT22;71097;44.760;37.726;2023-08-06T01:20:57;29.05;48.25
79026;DHT22;71097;44.760;37.726;2023-08-06T01:21:59;29.08;48.43
79026;DHT22;71097;44.760;37.726;2023-08-06T01:23:00;29.05;48.39
79026;DHT22;71097;44.760;37.726;2023-08-06T01:24:02;29.09;48.18
79026;DHT22;71097;44.760;37.726;2023-08-06T01:25:40;29.11;48.19
79026;DHT22;71097;44.760;37.726;2023-08-06T01:26:58;29.00;49.29
79026;DHT22;71097;44.760;37.726;2023-08-06T01:28:13;28.92;48.68
79026;DHT22;71097;44.760;37.726;2023-08-06T01:29:31;28.88;48.94
79026;DHT22;71097;44.760;37.726;2023-08-06T01:30:39;28.85;49.02
79026;DHT22;71097;44.760;37.726;2023-08-06T01:31:44;28.83;49.24
79026;DHT22;71097;44.760;37.726;2023-08-06T01:32:58;28.76;50.18
79026;DHT22;71097;44.760;37.726;2023-08-06T01:34:04;28.64;49.95
79026;DHT22;71097;44.760;37.726;2023-08-06T01:35:07;28.63;50.13
79026;DHT22;71097;44.760;37.726;2023-08-06T01:36:10;28.60;50.08
79026;DHT22;71097;44.760;37.726;2023-08-06T01:37:12;28.56;50.53
79026;DHT22;71097;44.760;37.726;2023-08-06T01:38:34;28.47;51.04
79026;DHT22;71097;44.760;37.726;2023-08-06T01:39:36;28.44;50.92
79026;DHT22;71097;44.760;37.726;2023-08-06T01:40:38;28.41;51.31
79026;DHT22;71097;44.760;37.726;2023-08-06T01:41:40;28.27;52.01
79026;DHT22;71097;44.760;37.726;2023-08-06T01:42:41;28.21;52.07
79026;DHT22;71097;44.760;37.726;2023-08-06T01:43:43;28.17;51.92
79026;DHT22;71097;44.760;37.726;2023-08-06T01:44:44;28.14;51.81
79026;DHT22;71097;44.760;37.726;2023-08-06T01:45:46;28.15;51.69
79026;DHT22;71097;44.760;37.726;2023-08-06T01:46:47;28.15;51.84
79026;DHT22;71097;44.760;37.726;2023-08-06T01:47:49;28.18;51.64
79026;DHT22;71097;44.760;37.726;2023-08-06T01:48:50;28.16;51.56
79026;DHT22;71097;44.760;37.726;2023-08-06T01:49:52;28.16;52.15
79026;DHT22;71097;44.760;37.726;2023-08-06T01:50:53;28.13;52.17
79026;DHT22;71097;44.760;37.726;2023-08-06T01:51:55;28.05;52.36
79026;DHT22;71097;44.760;37.726;2023-08-06T01:52:56;28.09;52.37
79026;DHT22;71097;44.760;37.726;2023-08-06T01:53:58;28.06;53.35
79026;DHT22;71097;44.760;37.726;2023-08-06T01:54:59;28.01;53.51
79026;DHT22;71097;44.760;37.726;2023-08-06T01:56:01;28.01;53.27
79026;DHT22;71097;44.760;37.726;2023-08-06T01:57:03;28.00;53.43
79026;DHT22;71097;44.760;37.726;2023-08-06T01:58:04;28.00;52.74
79026;DHT22;71097;44.760;37.726;2023-08-06T01:59:06;28.00;52.82
79026;DHT22;71097;44.760;37.726;2023-08-06T02:00:08;27.97;52.93
79026;DHT22;71097;44.760;37.726;2023-08-06T02:01:19;27.90;52.75
79026;DHT22;71097;44.760;37.726;2023-08-06T02:02:20;27.83;53.73
79026;DHT22;71097;44.760;37.726;2023-08-06T02:03:22;27.83;53.45
79026;DHT22;71097;44.760;37.726;2023-08-06T02:04:23;27.75;53.72
79026;DHT22;71097;44.760;37.726;2023-08-06T02:05:25;27.75;54.11
79026;DHT22;71097;44.760;37.726;2023-08-06T02:06:27;27.72;54.07
79026;DHT22;71097;44.760;37.726;2023-08-06T02:07:28;27.68;54.17
79026;DHT22;71097;44.760;37.726;2023-08-06T02:08:31;27.64;54.19
79026;DHT22;71097;44.760;37.726;2023-08-06T02:09:33;27.61;54.99
79026;DHT22;71097;44.760;37.726;2023-08-06T02:10:35;27.53;54.88
79026;DHT22;71097;44.760;37.726;2023-08-06T02:11:37;27.47;55.10
79026;DHT22;71097;44.760;37.726;2023-08-06T02:12:38;27.47;54.46
79026;DHT22;71097;44.760;37.726;2023-08-06T02:13:40;27.50;54.38
79026;DHT22;71097;44.760;37.726;2023-08-06T02:14:41;27.45;54.71
79026;DHT22;71097;44.760;37.726;2023-08-06T02:15:46;27.46;55.18
79026;DHT22;71097;44.760;37.726;2023-08-06T02:16:50;27.43;55.47
79026;DHT22;71097;44.760;37.726;2023-08-06T02:17:51;27.41;55.15
79026;DHT22;71097;44.760;37.726;2023-08-06T02:18:53;27.39;55.66
79026;DHT22;71097;44.760;37.726;2023-08-06T02:20:21;27.23;56.29
79026;DHT22;71097;44.760;37.726;2023-08-06T02:21:23;27.21;56.23
79026;DHT22;71097;44.760;37.726;2023-08-06T02:22:24;27.15;56.38
79026;DHT22;71097;44.760;37.726;2023-08-06T02:23:27;27.10;56.54
79026;DHT22;71097;44.760;37.726;2023-08-06T02:24:28;27.06;56.28
79026;DHT22;71097;44.760;37.726;2023-08-06T02:25:29;27.05;55.85
79026;DHT22;71097;44.760;37.726;2023-08-06T02:26:31;27.07;56.15
79026;DHT22;71097;44.760;37.726;2023-08-06T02:27:32;27.04;56.74
79026;DHT22;71097;44.760;37.726;2023-08-06T02:28:34;27.01;56.70
79026;DHT22;71097;44.760;37.726;2023-08-06T02:29:35;26.99;56.68
79026;DHT22;71097;44.760;37.726;2023-08-06T02:30:37;26.98;56.61
79026;DHT22;71097;44.760;37.726;2023-08-06T02:31:41;26.97;56.81
79026;DHT22;71097;44.760;37.726;2023-08-06T02:32:48;26.97;57.48
79026;DHT22;71097;44.760;37.726;2023-08-06T02:33:49;26.95;56.60
79026;DHT22;71097;44.760;37.726;2023-08-06T02:34:51;26.98;56.17
79026;DHT22;71097;44.760;37.726;2023-08-06T02:35:59;27.01;55.97
79026;DHT22;71097;44.760;37.726;2023-08-06T02:37:01;26.99;56.19
79026;DHT22;71097;44.760;37.726;2023-08-06T02:38:02;26.98;56.55
79026;DHT22;71097;44.760;37.726;2023-08-06T02:39:04;26.99;56.18
79026;DHT22;71097;44.760;37.726;2023-08-06T02:40:06;26.95;57.70
79026;DHT22;71097;44.760;37.726;2023-08-06T02:41:07;26.89;57.56
79026;DHT22;71097;44.760;37.726;2023-08-06T02:42:09;26.84;58.40
79026;DHT22;71097;44.760;37.726;2023-08-06T02:43:11;26.82;57.98
79026;DHT22;71097;44.760;37.726;2023-08-06T02:44:12;26.81;57.61
79026;DHT22;71097;44.760;37.726;2023-08-06T02:45:14;26.81;57.51
79026;DHT22;71097;44.760;37.726;2023-08-06T02:46:16;26.80;57.42
79026;DHT22;71097;44.760;37.726;2023-08-06T02:47:18;26.81;56.98
79026;DHT22;71097;44.760;37.726;2023-08-06T02:48:19;26.85;57.23
79026;DHT22;71097;44.760;37.726;2023-08-06T02:49:21;26.92;56.60
79026;DHT22;71097;44.760;37.726;2023-08-06T02:50:22;26.91;57.25
79026;DHT22;71097;44.760;37.726;2023-08-06T02:51:24;26.93;57.68
79026;DHT22;71097;44.760;37.726;2023-08-06T02:52:25;26.91;57.74
79026;DHT22;71097;44.760;37.726;2023-08-06T02:53:27;26.91;58.00
79026;DHT22;71097;44.760;37.726;2023-08-06T02:54:29;26.94;57.58
79026;DHT22;71097;44.760;37.726;2023-08-06T02:55:50;26.96;57.56
79026;DHT22;71097;44.760;37.726;2023-08-06T02:56:57;26.98;58.40
79026;DHT22;71097;44.760;37.726;2023-08-06T02:58:03;26.99;58.23
79026;DHT22;71097;44.760;37.726;2023-08-06T02:59:08;26.96;58.48
79026;DHT22;71097;44.760;37.726;2023-08-06T03:00:45;26.91;58.86
79026;DHT22;71097;44.760;37.726;2023-08-06T03:01:48;26.91;59.69
79026;DHT22;71097;44.760;37.726;2023-08-06T03:02:55;26.89;58.76
79026;DHT22;71097;44.760;37.726;2023-08-06T03:04:05;26.85;58.93
79026;DHT22;71097;44.760;37.726;2023-08-06T03:05:12;26.81;59.06
79026;DHT22;71097;44.760;37.726;2023-08-06T03:06:17;26.82;58.90
79026;DHT22;71097;44.760;37.726;2023-08-06T03:07:23;26.85;59.26
79026;DHT22;71097;44.760;37.726;2023-08-06T03:08:29;26.83;58.78
79026;DHT22;71097;44.760;37.726;2023-08-06T03:09:31;26.82;59.24
79026;DHT22;71097;44.760;37.726;2023-08-06T03:10:33;26.81;59.99
79026;DHT22;71097;44.760;37.726;2023-08-06T03:11:37;26.81;60.22
79026;DHT22;71097;44.760;37.726;2023-08-06T03:12:43;26.82;60.01
79026;DHT22;71097;44.760;37.726;2023-08-06T03:13:45;26.83;59.23
79026;DHT22;71097;44.760;37.726;2023-08-06T03:15:08;26.87;59.66
79026;DHT22;71097;44.760;37.726;2023-08-06T03:16:10;26.86;58.83
79026;DHT22;71097;44.760;37.726;2023-08-06T03:17:31;26.92;58.71
79026;DHT22;71097;44.760;37.726;2023-08-06T03:18:33;26.97;58.29
79026;DHT22;71097;44.760;37.726;2023-08-06T03:19:58;27.06;57.54
79026;DHT22;71097;44.760;37.726;2023-08-06T03:21:00;27.11;58.10
79026;DHT22;71097;44.760;37.726;2023-08-06T03:22:04;27.22;56.62
79026;DHT22;71097;44.760;37.726;2023-08-06T03:23:09;27.30;56.66
79026;DHT22;71097;44.760;37.726;2023-08-06T03:24:10;27.39;56.62
79026;DHT22;71097;44.760;37.726;2023-08-06T03:25:14;27.43;57.43
79026;DHT22;71097;44.760;37.726;2023-08-06T03:26:19;27.43;57.32
79026;DHT22;71097;44.760;37.726;2023-08-06T03:27:42;27.47;57.44
79026;DHT22;71097;44.760;37.726;2023-08-06T03:28:43;27.53;57.71
79026;DHT22;71097;44.760;37.726;2023-08-06T03:29:49;27.57;57.57
79026;DHT22;71097;44.760;37.726;2023-08-06T03:30:59;27.59;55.78
79026;DHT22;71097;44.760;37.726;2023-08-06T03:32:07;27.58;55.59
79026;DHT22;71097;44.760;37.726;2023-08-06T03:33:09;27.59;55.61
79026;DHT22;71097;44.760;37.726;2023-08-06T03:34:11;27.69;55.04
79026;DHT22;71097;44.760;37.726;2023-08-06T03:35:13;27.75;55.36
79026;DHT22;71097;44.760;37.726;2023-08-06T03:36:14;27.84;56.03
79026;DHT22;71097;44.760;37.726;2023-08-06T03:37:17;27.89;55.55
79026;DHT22;71097;44.760;37.726;2023-08-06T03:38:18;27.98;55.43
79026;DHT22;71097;44.760;37.726;2023-08-06T03:39:20;28.09;55.15
79026;DHT22;71097;44.760;37.726;2023-08-06T03:40:21;28.15;55.16
79026;DHT22;71097;44.760;37.726;2023-08-06T03:41:23;28.17;55.00
79026;DHT22;71097;44.760;37.726;2023-08-06T03:42:25;28.24;54.29
79026;DHT22;71097;44.760;37.726;2023-08-06T03:43:26;28.31;54.63
79026;DHT22;71097;44.760;37.726;2023-08-06T03:44:28;28.40;52.82
79026;DHT22;71097;44.760;37.726;2023-08-06T03:45:30;28.53;52.88
79026;DHT22;71097;44.760;37.726;2023-08-06T03:46:31;28.64;53.58
79026;DHT22;71097;44.760;37.726;2023-08-06T03:47:37;28.82;52.82
79026;DHT22;71097;44.760;37.726;2023-08-06T03:48:39;28.97;52.21
79026;DHT22;71097;44.760;37.726;2023-08-06T03:49:40;29.06;51.55
79026;DHT22;71097;44.760;37.726;2023-08-06T03:50:43;29.26;52.36
79026;DHT22;71097;44.760;37.726;2023-08-06T03:51:48;29.42;53.44
79026;DHT22;71097;44.760;37.726;2023-08-06T03:52:49;29.58;50.23
79026;DHT22;71097;44.760;37.726;2023-08-06T03:53:51;29.70;50.76
79026;DHT22;71097;44.760;37.726;2023-08-06T03:54:52;29.77;50.92
79026;DHT22;71097;44.760;37.726;2023-08-06T03:55:54;29.87;51.02
79026;DHT22;71097;44.760;37.726;2023-08-06T03:56:57;30.03;50.15
79026;DHT22;71097;44.760;37.726;2023-08-06T03:57:58;30.19;49.83
79026;DHT22;71097;44.760;37.726;2023-08-06T03:59:00;30.40;48.92
79026;DHT22;71097;44.760;37.726;2023-08-06T04:00:02;30.55;47.38
79026;DHT22;71097;44.760;37.726;2023-08-06T04:01:16;30.76;47.02
79026;DHT22;71097;44.760;37.726;2023-08-06T04:02:20;30.93;47.16
79026;DHT22;71097;44.760;37.726;2023-08-06T04:03:41;31.07;46.83
79026;DHT22;71097;44.760;37.726;2023-08-06T04:05:03;31.25;45.70
79026;DHT22;71097;44.760;37.726;2023-08-06T04:06:06;31.29;45.16
79026;DHT22;71097;44.760;37.726;2023-08-06T04:07:08;31.31;45.46
79026;DHT22;71097;44.760;37.726;2023-08-06T04:08:10;31.48;45.18
79026;DHT22;71097;44.760;37.726;2023-08-06T04:09:11;31.57;44.71
79026;DHT22;71097;44.760;37.726;2023-08-06T04:10:12;31.61;43.93
79026;DHT22;71097;44.760;37.726;2023-08-06T04:11:14;31.69;44.06
79026;DHT22;71097;44.760;37.726;2023-08-06T04:12:16;31.82;43.55
79026;DHT22;71097;44.760;37.726;2023-08-06T04:13:21;31.96;43.03
79026;DHT22;71097;44.760;37.726;2023-08-06T04:14:22;32.12;42.89
79026;DHT22;71097;44.760;37.726;2023-08-06T04:15:24;32.26;43.22
79026;DHT22;71097;44.760;37.726;2023-08-06T04:16:25;32.39;41.84
79026;DHT22;71097;44.760;37.726;2023-08-06T04:17:27;32.52;41.94
79026;DHT22;71097;44.760;37.726;2023-08-06T04:18:29;32.67;41.72
79026;DHT22;71097;44.760;37.726;2023-08-06T04:19:30;32.79;40.54
79026;DHT22;71097;44.760;37.726;2023-08-06T04:20:32;32.86;40.50
79026;DHT22;71097;44.760;37.726;2023-08-06T04:21:54;33.02;41.95
79026;DHT22;71097;44.760;37.726;2023-08-06T04:22:55;33.03;39.88
79026;DHT22;71097;44.760;37.726;2023-08-06T04:23:57;33.14;39.61
79026;DHT22;71097;44.760;37.726;2023-08-06T04:24:58;33.32;40.54
79026;DHT22;71097;44.760;37.726;2023-08-06T04:26:00;33.46;40.45
79026;DHT22;71097;44.760;37.726;2023-08-06T04:27:06;33.67;39.05
79026;DHT22;71097;44.760;37.726;2023-08-06T04:28:08;33.83;39.93
79026;DHT22;71097;44.760;37.726;2023-08-06T04:29:09;33.99;38.56
79026;DHT22;71097;44.760;37.726;2023-08-06T04:30:11;34.11;38.06
79026;DHT22;71097;44.760;37.726;2023-08-06T04:31:13;34.20;38.07
79026;DHT22;71097;44.760;37.726;2023-08-06T04:32:22;34.35;37.42
79026;DHT22;71097;44.760;37.726;2023-08-06T04:33:27;34.49;38.19
79026;DHT22;71097;44.760;37.726;2023-08-06T04:34:49;34.48;37.94
79026;DHT22;71097;44.760;37.726;2023-08-06T04:35:54;34.49;36.81
79026;DHT22;71097;44.760;37.726;2023-08-06T04:37:00;34.32;37.02
79026;DHT22;71097;44.760;37.726;2023-08-06T04:38:02;34.36;36.92
79026;DHT22;71097;44.760;37.726;2023-08-06T04:39:04;34.49;37.72
79026;DHT22;71097;44.760;37.726;2023-08-06T04:40:25;34.44;36.90
79026;DHT22;71097;44.760;37.726;2023-08-06T04:41:27;34.48;36.70
79026;DHT22;71097;44.760;37.726;2023-08-06T04:42:28;34.63;36.62
79026;DHT22;71097;44.760;37.726;2023-08-06T04:43:30;34.76;36.36
79026;DHT22;71097;44.760;37.726;2023-08-06T04:44:31;34.85;36.00
79026;DHT22;71097;44.760;37.726;2023-08-06T04:45:33;34.86;36.81
79026;DHT22;71097;44.760;37.726;2023-08-06T04:46:34;34.93;36.24
79026;DHT22;71097;44.760;37.726;2023-08-06T04:47:36;34.89;36.25
79026;DHT22;71097;44.760;37.726;2023-08-06T04:48:38;34.81;35.06
79026;DHT22;71097;44.760;37.726;2023-08-06T04:49:39;34.94;34.37
79026;DHT22;71097;44.760;37.726;2023-08-06T04:51:01;34.99;35.27
79026;DHT22;71097;44.760;37.726;2023-08-06T04:52:02;34.98;35.94
79026;DHT22;71097;44.760;37.726;2023-08-06T04:53:04;35.06;35.56
79026;DHT22;71097;44.760;37.726;2023-08-06T04:54:05;35.09;35.16
79026;DHT22;71097;44.760;37.726;2023-08-06T04:55:07;35.23;34.76
79026;DHT22;71097;44.760;37.726;2023-08-06T04:56:08;35.16;34.44
79026;DHT22;71097;44.760;37.726;2023-08-06T04:57:10;35.20;34.68
79026;DHT22;71097;44.760;37.726;2023-08-06T04:58:12;35.38;34.54
79026;DHT22;71097;44.760;37.726;2023-08-06T04:59:14;35.42;33.99
79026;DHT22;71097;44.760;37.726;2023-08-06T05:00:15;35.45;34.57
79026;DHT22;71097;44.760;37.726;2023-08-06T05:01:17;35.51;33.04
79026;DHT22;71097;44.760;37.726;2023-08-06T05:02:18;35.47;33.38
79026;DHT22;71097;44.760;37.726;2023-08-06T05:03:20;35.53;33.76
79026;DHT22;71097;44.760;37.726;2023-08-06T05:04:22;35.55;33.31
79026;DHT22;71097;44.760;37.726;2023-08-06T05:05:23;35.51;33.75
79026;DHT22;71097;44.760;37.726;2023-08-06T05:06:25;35.49;33.46
79026;DHT22;71097;44.760;37.726;2023-08-06T05:07:26;35.49;33.38
79026;DHT22;71097;44.760;37.726;2023-08-06T05:08:28;35.44;33.79
79026;DHT22;71097;44.760;37.726;2023-08-06T05:09:29;35.56;33.59
79026;DHT22;71097;44.760;37.726;2023-08-06T05:10:31;35.77;33.99
79026;DHT22;71097;44.760;37.726;2023-08-06T05:11:32;35.94;32.74
79026;DHT22;71097;44.760;37.726;2023-08-06T05:12:33;36.06;32.28
79026;DHT22;71097;44.760;37.726;2023-08-06T05:13:35;36.17;32.70
79026;DHT22;71097;44.760;37.726;2023-08-06T05:14:36;36.18;32.44
79026;DHT22;71097;44.760;37.726;2023-08-06T05:15:39;36.32;31.93
79026;DHT22;71097;44.760;37.726;2023-08-06T05:16:43;36.43;31.86
79026;DHT22;71097;44.760;37.726;2023-08-06T05:17:45;36.56;31.81
79026;DHT22;71097;44.760;37.726;2023-08-06T05:18:46;36.55;31.73
79026;DHT22;71097;44.760;37.726;2023-08-06T05:19:48;36.60;32.08
79026;DHT22;71097;44.760;37.726;2023-08-06T05:20:49;36.52;31.81
79026;DHT22;71097;44.760;37.726;2023-08-06T05:21:51;36.71;32.14
79026;DHT22;71097;44.760;37.726;2023-08-06T05:22:52;37.06;31.40
79026;DHT22;71097;44.760;37.726;2023-08-06T05:23:54;37.38;31.07
79026;DHT22;71097;44.760;37.726;2023-08-06T05:24:55;37.66;30.01
79026;DHT22;71097;44.760;37.726;2023-08-06T05:25:57;37.90;30.05
79026;DHT22;71097;44.760;37.726;2023-08-06T05:26:59;38.11;30.04
79026;DHT22;71097;44.760;37.726;2023-08-06T05:28:00;38.24;28.95
79026;DHT22;71097;44.760;37.726;2023-08-06T05:29:05;38.41;29.09
79026;DHT22;71097;44.760;37.726;2023-08-06T05:30:08;38.58;28.90
79026;DHT22;71097;44.760;37.726;2023-08-06T05:31:09;38.81;28.06
79026;DHT22;71097;44.760;37.726;2023-08-06T05:32:16;38.80;28.80
79026;DHT22;71097;44.760;37.726;2023-08-06T05:33:18;38.56;29.26
79026;DHT22;71097;44.760;37.726;2023-08-06T05:34:22;38.46;28.77
79026;DHT22;71097;44.760;37.726;2023-08-06T05:35:31;38.44;29.13
79026;DHT22;71097;44.760;37.726;2023-08-06T05:36:33;38.38;29.16
79026;DHT22;71097;44.760;37.726;2023-08-06T05:37:34;38.26;28.78
79026;DHT22;71097;44.760;37.726;2023-08-06T05:38:36;38.14;28.50
79026;DHT22;71097;44.760;37.726;2023-08-06T05:39:38;38.04;29.18
79026;DHT22;71097;44.760;37.726;2023-08-06T05:40:39;38.18;28.65
79026;DHT22;71097;44.760;37.726;2023-08-06T05:41:41;38.46;28.47
79026;DHT22;71097;44.760;37.726;2023-08-06T05:42:43;38.64;28.65
79026;DHT22;71097;44.760;37.726;2023-08-06T05:43:45;38.82;29.00
79026;DHT22;71097;44.760;37.726;2023-08-06T05:44:46;38.84;29.05
79026;DHT22;71097;44.760;37.726;2023-08-06T05:45:51;38.90;27.78
79026;DHT22;71097;44.760;37.726;2023-08-06T05:46:56;39.05;27.60
79026;DHT22;71097;44.760;37.726;2023-08-06T05:47:57;39.06;28.57
79026;DHT22;71097;44.760;37.726;2023-08-06T05:48:59;39.18;28.49
79026;DHT22;71097;44.760;37.726;2023-08-06T05:50:01;39.38;26.58
79026;DHT22;71097;44.760;37.726;2023-08-06T05:51:02;39.47;26.51
79026;DHT22;71097;44.760;37.726;2023-08-06T05:52:04;39.47;26.10
79026;DHT22;71097;44.760;37.726;2023-08-06T05:53:09;39.53;25.83
79026;DHT22;71097;44.760;37.726;2023-08-06T05:54:11;39.61;26.71
79026;DHT22;71097;44.760;37.726;2023-08-06T05:55:13;39.61;25.43
79026;DHT22;71097;44.760;37.726;2023-08-06T05:56:16;39.54;25.92
79026;DHT22;71097;44.760;37.726;2023-08-06T05:57:17;39.57;26.43
79026;DHT22;71097;44.760;37.726;2023-08-06T05:58:19;39.62;25.63
79026;DHT22;71097;44.760;37.726;2023-08-06T05:59:25;39.64;26.54
79026;DHT22;71097;44.760;37.726;2023-08-06T06:00:27;39.71;26.05
79026;DHT22;71097;44.760;37.726;2023-08-06T06:01:28;39.74;24.75
79026;DHT22;71097;44.760;37.726;2023-08-06T06:02:30;39.79;24.75
79026;DHT22;71097;44.760;37.726;2023-08-06T06:03:32;39.87;25.74
79026;DHT22;71097;44.760;37.726;2023-08-06T06:04:34;39.87;25.46
79026;DHT22;71097;44.760;37.726;2023-08-06T06:05:38;39.84;25.30
79026;DHT22;71097;44.760;37.726;2023-08-06T06:06:44;39.76;25.55
79026;DHT22;71097;44.760;37.726;2023-08-06T06:07:46;39.81;26.23
79026;DHT22;71097;44.760;37.726;2023-08-06T06:08:50;39.88;24.92
79026;DHT22;71097;44.760;37.726;2023-08-06T06:09:52;39.84;25.47
79026;DHT22;71097;44.760;37.726;2023-08-06T06:10:54;39.92;25.44
79026;DHT22;71097;44.760;37.726;2023-08-06T06:12:21;39.84;25.17
79026;DHT22;71097;44.760;37.726;2023-08-06T06:13:24;39.81;25.68
79026;DHT22;71097;44.760;37.726;2023-08-06T06:14:25;39.93;25.63
79026;DHT22;71097;44.760;37.726;2023-08-06T06:15:27;39.91;24.93
79026;DHT22;71097;44.760;37.726;2023-08-06T06:16:29;39.99;25.36
79026;DHT22;71097;44.760;37.726;2023-08-06T06:17:30;40.02;24.85
79026;DHT22;71097;44.760;37.726;2023-08-06T06:18:32;40.02;24.60
79026;DHT22;71097;44.760;37.726;2023-08-06T06:19:34;39.99;24.71
79026;DHT22;71097;44.760;37.726;2023-08-06T06:20:36;40.15;25.28
79026;DHT22;71097;44.760;37.726;2023-08-06T06:21:38;40.24;25.04
79026;DHT22;71097;44.760;37.726;2023-08-06T06:22:40;40.26;24.96
79026;DHT22;71097;44.760;37.726;2023-08-06T06:23:51;40.28;24.85
79026;DHT22;71097;44.760;37.726;2023-08-06T06:25:04;40.15;24.48
79026;DHT22;71097;44.760;37.726;2023-08-06T06:26:06;40.18;25.19
79026;DHT22;71097;44.760;37.726;2023-08-06T06:27:11;40.02;25.02
79026;DHT22;71097;44.760;37.726;2023-08-06T06:28:13;39.98;24.94
79026;DHT22;71097;44.760;37.726;2023-08-06T06:29:15;40.03;24.85
79026;DHT22;71097;44.760;37.726;2023-08-06T06:30:17;40.14;24.83
79026;DHT22;71097;44.760;37.726;2023-08-06T06:31:19;40.24;24.66
79026;DHT22;71097;44.760;37.726;2023-08-06T06:32:27;40.33;24.79
79026;DHT22;71097;44.760;37.726;2023-08-06T06:33:28;40.27;23.88
79026;DHT22;71097;44.760;37.726;2023-08-06T06:34:30;40.22;24.13
79026;DHT22;71097;44.760;37.726;2023-08-06T06:35:31;40.19;24.10
79026;DHT22;71097;44.760;37.726;2023-08-06T06:36:33;40.17;24.30
79026;DHT22;71097;44.760;37.726;2023-08-06T06:37:34;40.27;25.20
79026;DHT22;71097;44.760;37.726;2023-08-06T06:38:36;40.39;24.35
79026;DHT22;71097;44.760;37.726;2023-08-06T06:39:38;40.41;24.01
79026;DHT22;71097;44.760;37.726;2023-08-06T06:40:40;40.45;24.17
79026;DHT22;71097;44.760;37.726;2023-08-06T06:41:45;40.54;24.53
79026;DHT22;71097;44.760;37.726;2023-08-06T06:42:57;40.36;24.06
79026;DHT22;71097;44.760;37.726;2023-08-06T06:43:59;40.44;24.53